Massillon, Ohio
Current Conditions -  °F | °C
As of 2:51 PM on Friday 31 Oct 2014 (Local Time) from KCAK Reporting Station
Overcast Overcast  
Wind Chill: 45°   Ceiling: 3600
Heat Index: 47°   Visibility: 10mi
Dew Point: 37°   Wind: 5mph
Humidity: 68%   Direction: 200°SSW
Pressure: 29.84"   Gusts: NA
Location:  40.79°N, 81.52°W
Report Text: KCAK 311851Z 20004KT 10SM SCT022 BKN036 OVC045 08/03 A2984 RMK AO2 SLP110 T00830028
Loading
Personal Weather Stations






























Interactive Weather Map New forecast layout! Learn more

10-Day Weather Forecast

Advertisements
Track Severe Weather on mobile